Time;durP1;ratioP1;P1;durP2;ratioP2;P2;SDS_P1;SDS_P2;PMS_P1;PMS_P2;Temp;Humidity;BMP_temperature;BMP_pressure;BME280_temperature;BME280_humidity;BME280_pressure;Samples;Min_cycle;Max_cycle;Signal;HPM_P1;HPM_P2
2021/06/05 00:00:55;;;;;;;17.97;8.93;;;18.60;91.60;;;;;;4441625;32;20195;-79
2021/06/05 00:03:22;;;;;;;16.43;9.53;;;18.50;91.80;;;;;;4441653;32;20186;-80
2021/06/05 00:05:56;;;;;;;16.73;9.23;;;18.50;91.90;;;;;;4441531;32;20142;-80
2021/06/05 00:08:26;;;;;;;17.20;9.60;;;18.50;92.20;;;;;;4441322;32;20209;-80
2021/06/05 00:10:58;;;;;;;13.83;8.80;;;18.50;92.50;;;;;;4443002;32;20445;-80
2021/06/05 00:13:38;;;;;;;12.57;8.83;;;18.50;92.80;;;;;;4442761;32;20147;-80
2021/06/05 00:16:09;;;;;;;16.93;9.50;;;18.50;93.30;;;;;;4443010;32;20145;-80
2021/06/05 00:18:37;;;;;;;15.20;9.27;;;18.50;93.80;;;;;;4442764;32;20166;-80
2021/06/05 00:21:05;;;;;;;14.63;9.43;;;18.50;93.70;;;;;;4441821;32;20197;-80
2021/06/05 00:23:33;;;;;;;13.57;8.90;;;18.50;93.70;;;;;;4441558;32;20146;-80
2021/06/05 00:26:00;;;;;;;14.67;9.07;;;18.40;93.90;;;;;;4440763;32;20142;-80
2021/06/05 00:28:27;;;;;;;17.67;10.03;;;18.30;94.90;;;;;;4441318;32;20437;-80
2021/06/05 00:30:54;;;;;;;17.53;8.93;;;18.10;95.10;;;;;;4440657;32;20437;-79
2021/06/05 00:33:22;;;;;;;13.20;8.73;;;17.90;96.10;;;;;;4441380;32;20134;-80
2021/06/05 00:35:50;;;;;;;15.93;9.13;;;18.00;97.00;;;;;;4440630;32;20412;-79
2021/06/05 00:38:18;;;;;;;15.93;9.13;;;18.10;97.60;;;;;;4440940;32;20245;-80
2021/06/05 00:40:48;;;;;;;15.03;8.90;;;18.20;98.40;;;;;;4442516;32;20195;-80
2021/06/05 00:43:19;;;;;;;14.73;9.13;;;18.20;99.00;;;;;;4442755;32;20215;-80
2021/06/05 00:45:47;;;;;;;15.33;9.07;;;18.20;99.80;;;;;;4441194;32;20428;-81
2021/06/05 00:48:16;;;;;;;14.53;8.67;;;18.20;99.90;;;;;;4442053;32;20415;-80
2021/06/05 00:50:45;;;;;;;14.97;9.13;;;18.10;99.90;;;;;;4440887;32;20143;-80
2021/06/05 00:53:15;;;;;;;15.07;8.53;;;18.10;99.90;;;;;;4442310;32;20217;-80
2021/06/05 00:55:44;;;;;;;13.57;8.70;;;18.00;99.90;;;;;;4442293;32;20138;-80
2021/06/05 00:58:12;;;;;;;16.30;9.20;;;18.00;99.90;;;;;;4440426;32;20150;-80
2021/06/05 01:01:01;;;;;;;17.27;8.87;;;18.00;99.90;;;;;;4442245;32;20135;-80
2021/06/05 01:03:28;;;;;;;12.13;8.47;;;17.90;99.90;;;;;;4440781;32;20165;-81
2021/06/05 01:06:01;;;;;;;14.67;9.17;;;18.00;99.90;;;;;;4442152;32;20209;-80
2021/06/05 01:08:39;;;;;;;12.50;8.10;;;18.00;99.90;;;;;;4442069;32;20139;-80
2021/06/05 01:11:18;;;;;;;15.03;8.57;;;17.90;99.90;;;;;;4442029;32;20194;-80
2021/06/05 01:13:54;;;;;;;14.60;8.43;;;17.80;99.90;;;;;;4441583;32;20138;-80
2021/06/05 01:16:24;;;;;;;12.57;8.27;;;17.90;99.90;;;;;;4439393;32;20198;-81
2021/06/05 01:19:01;;;;;;;15.60;8.27;;;17.90;99.90;;;;;;4440389;32;20151;-81
2021/06/05 01:21:50;;;;;;;12.10;8.47;;;17.90;99.90;;;;;;4442119;32;20162;-81
2021/06/05 01:24:43;;;;;;;12.40;8.33;;;17.80;99.90;;;;;;4440394;32;20218;-81
2021/06/05 01:27:28;;;;;;;15.70;8.47;;;17.80;99.90;;;;;;4441753;32;20146;-81
2021/06/05 01:29:59;;;;;;;13.30;8.70;;;17.80;99.90;;;;;;4440741;32;20184;-80
2021/06/05 01:32:28;;;;;;;11.00;7.90;;;17.80;99.90;;;;;;4441639;32;20165;-80
2021/06/05 01:34:57;;;;;;;12.43;8.03;;;17.70;99.90;;;;;;4440140;32;20220;-79
2021/06/05 01:37:26;;;;;;;14.70;8.50;;;17.70;99.90;;;;;;4441621;32;20402;-80
2021/06/05 01:39:54;;;;;;;11.73;7.80;;;17.60;99.90;;;;;;4440186;32;20135;-80
2021/06/05 01:42:28;;;;;;;11.23;7.90;;;17.60;99.90;;;;;;4440109;32;20558;-81
2021/06/05 01:44:57;;;;;;;11.87;7.50;;;17.50;99.90;;;;;;4441671;32;20191;-80
2021/06/05 01:47:25;;;;;;;12.80;7.93;;;17.50;99.90;;;;;;4439990;32;20189;-80
2021/06/05 01:49:52;;;;;;;12.10;7.80;;;17.50;99.90;;;;;;4439759;32;20417;-81
2021/06/05 01:52:27;;;;;;;12.10;7.90;;;17.50;99.90;;;;;;4440021;32;20201;-81
2021/06/05 01:55:07;;;;;;;10.27;7.40;;;17.50;99.90;;;;;;4439432;32;20153;-79
2021/06/05 01:57:38;;;;;;;11.17;7.73;;;17.50;99.90;;;;;;4440239;32;20229;-80
2021/06/05 02:00:18;;;;;;;12.27;7.63;;;17.50;99.90;;;;;;4439909;32;20482;-80
2021/06/05 02:02:45;;;;;;;10.43;7.80;;;17.40;99.90;;;;;;4441474;32;20138;-81
2021/06/05 02:05:13;;;;;;;12.60;8.00;;;17.40;99.90;;;;;;4439999;32;20153;-81
2021/06/05 02:07:39;;;;;;;12.67;7.77;;;17.40;99.90;;;;;;4439817;32;20191;-80
2021/06/05 02:10:15;;;;;;;11.43;7.80;;;17.20;99.90;;;;;;4441998;32;20445;-80
2021/06/05 02:12:42;;;;;;;11.97;7.40;;;17.20;99.90;;;;;;4439858;32;20457;-80
2021/06/05 02:15:36;;;;;;;11.20;7.50;;;17.20;99.90;;;;;;4439750;32;20161;-79
2021/06/05 02:18:08;;;;;;;13.07;8.27;;;17.20;99.90;;;;;;4440190;32;20217;-80
2021/06/05 02:20:50;;;;;;;10.90;7.77;;;17.10;99.90;;;;;;4440691;32;20169;-80
2021/06/05 02:23:23;;;;;;;12.67;7.33;;;17.10;99.90;;;;;;4441508;32;20322;-79
2021/06/05 02:25:54;;;;;;;11.47;7.60;;;17.10;99.90;;;;;;4440617;32;20138;-79
2021/06/05 02:28:21;;;;;;;10.20;7.40;;;17.10;99.90;;;;;;4441118;32;20161;-80
2021/06/05 02:30:49;;;;;;;11.30;7.50;;;17.10;99.90;;;;;;4439825;32;20180;-80
2021/06/05 02:33:17;;;;;;;9.90;7.40;;;17.10;99.90;;;;;;4439574;32;20161;-81
2021/06/05 02:35:46;;;;;;;10.07;7.60;;;17.10;99.90;;;;;;4439561;32;20187;-80
2021/06/05 02:38:18;;;;;;;10.03;7.50;;;17.00;99.90;;;;;;4439576;32;20237;-80
2021/06/05 02:40:46;;;;;;;10.53;7.63;;;17.00;99.90;;;;;;4439835;32;20135;-80
2021/06/05 02:43:21;;;;;;;10.63;7.70;;;16.90;99.90;;;;;;4441073;32;20180;-80
2021/06/05 02:45:53;;;;;;;11.13;7.20;;;16.90;99.90;;;;;;4440590;32;20189;-80
2021/06/05 02:48:20;;;;;;;9.77;7.13;;;16.90;99.90;;;;;;4439003;32;20463;-80
2021/06/05 02:50:53;;;;;;;13.60;7.93;;;16.90;99.90;;;;;;4439431;32;20192;-80
2021/06/05 02:53:20;;;;;;;13.10;7.70;;;16.90;99.90;;;;;;4441018;32;20139;-80
2021/06/05 02:55:48;;;;;;;10.30;7.10;;;16.80;99.90;;;;;;4439360;32;20169;-80
2021/06/05 02:58:15;;;;;;;11.77;7.30;;;16.70;99.90;;;;;;4438528;32;20172;-80
2021/06/05 03:00:45;;;;;;;10.47;7.40;;;16.70;99.90;;;;;;4440316;32;20210;-80
2021/06/05 03:03:14;;;;;;;10.40;7.17;;;16.70;99.90;;;;;;4439431;32;20131;-80
2021/06/05 03:05:42;;;;;;;12.03;7.27;;;16.60;99.90;;;;;;4438958;32;20164;-81
2021/06/05 03:08:16;;;;;;;11.93;7.33;;;16.60;99.90;;;;;;4440891;32;20394;-80
2021/06/05 03:10:44;;;;;;;14.90;7.67;;;16.50;99.90;;;;;;4440111;32;20487;-80
2021/06/05 03:13:11;;;;;;;10.43;7.23;;;16.50;99.90;;;;;;4442298;32;20150;-80
2021/06/05 03:15:39;;;;;;;10.87;7.47;;;16.50;99.90;;;;;;4443748;32;20402;-80
2021/06/05 03:18:07;;;;;;;11.33;7.60;;;16.50;99.90;;;;;;4442543;32;20166;-80
2021/06/05 03:20:38;;;;;;;10.13;6.87;;;16.50;99.90;;;;;;4442193;32;20135;-80
2021/06/05 03:23:06;;;;;;;13.03;8.00;;;16.40;99.90;;;;;;4443872;32;20410;-81
2021/06/05 03:25:34;;;;;;;10.17;7.50;;;16.40;99.90;;;;;;4443578;32;20448;-80
2021/06/05 03:28:01;;;;;;;10.30;7.07;;;16.40;99.90;;;;;;4442098;32;20143;-80
2021/06/05 03:30:29;;;;;;;10.90;7.70;;;16.40;99.90;;;;;;4442563;32;20204;-82
2021/06/05 03:32:56;;;;;;;10.67;7.37;;;16.40;99.90;;;;;;4441917;32;20139;-81
2021/06/05 03:35:23;;;;;;;9.80;7.60;;;16.40;99.90;;;;;;4443750;32;20165;-80
2021/06/05 03:37:51;;;;;;;9.63;6.77;;;16.30;99.90;;;;;;4443418;32;20165;-80
2021/06/05 03:40:22;;;;;;;11.17;7.20;;;16.40;99.90;;;;;;4441805;32;20457;-80
2021/06/05 03:42:49;;;;;;;10.87;7.20;;;16.40;99.90;;;;;;4442139;32;20139;-81
2021/06/05 03:45:17;;;;;;;11.83;7.77;;;16.40;99.90;;;;;;4442218;32;20479;-80
2021/06/05 03:47:46;;;;;;;10.23;7.83;;;16.20;99.90;;;;;;4441754;32;20201;-80
2021/06/05 03:50:16;;;;;;;9.70;7.23;;;16.20;99.90;;;;;;4440130;32;20512;-80
2021/06/05 03:52:43;;;;;;;8.20;6.77;;;16.20;99.90;;;;;;4442105;32;20173;-80
2021/06/05 03:55:11;;;;;;;10.40;7.37;;;16.30;99.90;;;;;;4441812;32;20217;-80
2021/06/05 03:57:38;;;;;;;10.60;7.67;;;16.30;99.90;;;;;;4441598;32;20158;-81
2021/06/05 04:00:11;;;;;;;10.00;7.37;;;16.40;99.90;;;;;;4441319;32;20192;-81
2021/06/05 04:02:39;;;;;;;12.00;7.90;;;16.30;99.90;;;;;;4443111;32;20142;-81
2021/06/05 04:05:08;;;;;;;11.30;7.73;;;16.20;99.90;;;;;;4443039;32;20184;-82
2021/06/05 04:07:36;;;;;;;9.83;7.30;;;16.20;99.90;;;;;;4442868;32;20135;-82
2021/06/05 04:10:05;;;;;;;11.33;7.50;;;16.10;99.90;;;;;;4442135;32;20445;-82
2021/06/05 04:12:32;;;;;;;11.93;8.00;;;16.10;99.90;;;;;;4441750;32;20146;-82
2021/06/05 04:14:59;;;;;;;11.33;8.20;;;16.10;99.90;;;;;;4442334;32;20411;-83
2021/06/05 04:17:26;;;;;;;12.73;8.20;;;16.10;99.90;;;;;;4439503;32;20457;-82
2021/06/05 04:19:53;;;;;;;10.03;7.93;;;16.10;99.90;;;;;;4441367;32;20146;-81
2021/06/05 04:22:20;;;;;;;12.00;7.90;;;16.10;99.90;;;;;;4441286;32;20278;-81
2021/06/05 04:24:47;;;;;;;12.87;7.60;;;16.10;99.90;;;;;;4439159;32;20193;-81
2021/06/05 04:27:14;;;;;;;10.60;7.87;;;16.10;99.90;;;;;;4441360;32;20150;-82
2021/06/05 04:29:41;;;;;;;12.93;7.90;;;16.20;99.90;;;;;;4441221;32;20139;-82
2021/06/05 04:32:09;;;;;;;11.63;8.20;;;16.10;99.90;;;;;;4441335;32;20155;-81
2021/06/05 04:34:35;;;;;;;12.90;8.20;;;16.10;99.90;;;;;;4441066;32;20169;-81
2021/06/05 04:37:03;;;;;;;10.90;8.23;;;16.10;99.90;;;;;;4441092;32;20150;-80
2021/06/05 04:39:30;;;;;;;12.97;8.07;;;16.10;99.90;;;;;;4441010;32;20142;-80
2021/06/05 04:41:57;;;;;;;14.20;8.00;;;16.10;99.90;;;;;;4441453;32;20138;-81
2021/06/05 04:44:24;;;;;;;12.23;7.60;;;16.10;99.90;;;;;;4440952;32;20127;-81
2021/06/05 04:46:51;;;;;;;12.53;8.17;;;16.20;99.90;;;;;;4441130;32;20138;-80
2021/06/05 04:49:18;;;;;;;10.37;7.57;;;16.30;99.90;;;;;;4440871;32;20157;-81
2021/06/05 04:51:45;;;;;;;10.53;7.57;;;16.40;99.90;;;;;;4441094;32;20146;-80
2021/06/05 04:54:13;;;;;;;13.20;7.43;;;16.40;99.90;;;;;;4440803;32;20213;-80
2021/06/05 04:56:46;;;;;;;10.87;8.00;;;16.50;99.90;;;;;;4440552;32;20166;-80
2021/06/05 04:59:15;;;;;;;9.90;7.50;;;16.50;99.90;;;;;;4440726;32;20151;-80
2021/06/05 05:01:42;;;;;;;10.97;7.20;;;16.50;99.90;;;;;;4440741;32;20135;-80
2021/06/05 05:04:09;;;;;;;11.50;7.60;;;16.60;99.90;;;;;;4440731;32;20588;-80
2021/06/05 05:06:37;;;;;;;10.30;7.30;;;16.70;99.90;;;;;;4440751;32;20198;-80
2021/06/05 05:09:08;;;;;;;10.20;7.87;;;16.70;99.90;;;;;;4442170;32;20194;-81
2021/06/05 05:11:35;;;;;;;10.27;7.93;;;16.80;99.90;;;;;;4440679;32;20206;-80
2021/06/05 05:14:03;;;;;;;10.17;7.73;;;16.90;99.90;;;;;;4440152;32;20154;-80
2021/06/05 05:16:31;;;;;;;11.37;7.77;;;17.00;99.90;;;;;;4440558;32;20199;-80
2021/06/05 05:18:58;;;;;;;11.47;8.23;;;17.00;99.90;;;;;;4441786;32;20147;-80
2021/06/05 05:21:26;;;;;;;12.57;7.97;;;17.00;99.90;;;;;;4441899;32;20384;-80
2021/06/05 05:23:54;;;;;;;11.80;8.30;;;17.00;99.90;;;;;;4440494;32;20146;-80
2021/06/05 05:26:22;;;;;;;11.67;7.87;;;17.10;99.90;;;;;;4439131;32;20165;-80
2021/06/05 05:28:51;;;;;;;11.20;7.60;;;17.20;99.90;;;;;;4440323;32;20138;-80
2021/06/05 05:31:22;;;;;;;11.70;8.00;;;17.20;99.90;;;;;;4440372;32;20499;-80
2021/06/05 05:33:50;;;;;;;10.10;7.47;;;17.30;99.90;;;;;;4440143;32;20187;-81
2021/06/05 05:36:25;;;;;;;11.87;8.10;;;17.30;99.90;;;;;;4440185;32;20142;-80
2021/06/05 05:38:53;;;;;;;10.43;7.80;;;17.40;99.90;;;;;;4441691;32;20150;-80
2021/06/05 05:41:22;;;;;;;9.30;7.87;;;17.40;99.90;;;;;;4440233;32;20188;-80
2021/06/05 05:43:49;;;;;;;11.17;7.70;;;17.40;99.90;;;;;;4440180;32;20138;-80
2021/06/05 05:46:17;;;;;;;12.27;7.43;;;17.40;99.90;;;;;;4441644;32;20172;-80
2021/06/05 05:48:44;;;;;;;11.13;8.20;;;17.50;99.90;;;;;;4439612;32;20196;-80
2021/06/05 05:51:13;;;;;;;11.30;7.93;;;17.50;99.90;;;;;;4442648;32;20390;-81
2021/06/05 05:53:40;;;;;;;10.33;7.60;;;17.50;99.90;;;;;;4442537;32;20200;-81
2021/06/05 05:56:13;;;;;;;10.80;7.37;;;17.50;99.90;;;;;;4441352;32;20195;-80
2021/06/05 05:58:43;;;;;;;11.50;7.57;;;17.50;99.90;;;;;;4438542;32;20177;-80
2021/06/05 06:01:11;;;;;;;11.37;7.70;;;17.60;99.90;;;;;;4439934;32;20235;-80
2021/06/05 06:03:42;;;;;;;11.70;7.90;;;17.50;99.90;;;;;;4441461;32;20487;-80
2021/06/05 06:06:10;;;;;;;13.13;7.63;;;17.60;99.90;;;;;;4439502;32;20286;-81
2021/06/05 06:08:38;;;;;;;12.93;7.37;;;17.50;99.90;;;;;;4439806;32;20205;-81
2021/06/05 06:11:06;;;;;;;11.80;6.97;;;17.60;99.90;;;;;;4438767;32;20146;-81
2021/06/05 06:13:36;;;;;;;9.93;7.07;;;17.70;99.90;;;;;;4440613;32;20150;-81
2021/06/05 06:16:07;;;;;;;9.00;6.30;;;17.60;99.90;;;;;;4439826;32;20438;-80
2021/06/05 06:18:38;;;;;;;9.80;6.80;;;17.70;99.90;;;;;;4440255;32;20211;-81
2021/06/05 06:21:08;;;;;;;9.63;6.33;;;17.80;99.90;;;;;;4439271;32;20499;-81
2021/06/05 06:23:39;;;;;;;11.13;6.60;;;17.80;99.90;;;;;;4439711;32;20146;-81
2021/06/05 06:26:30;;;;;;;7.30;5.80;;;17.90;99.90;;;;;;4439665;32;20179;-81
2021/06/05 06:32:00;;;;;;;8.20;5.53;;;18.10;99.90;;;;;;4406987;32;20146;-80
2021/06/05 06:34:29;;;;;;;6.43;5.20;;;18.20;99.90;;;;;;4408659;32;20171;-80
2021/06/05 06:37:00;;;;;;;7.40;5.70;;;18.40;99.90;;;;;;4406671;32;20192;-80
2021/06/05 06:39:27;;;;;;;6.60;5.10;;;18.40;99.90;;;;;;4407592;32;20423;-82
2021/06/05 06:41:54;;;;;;;9.60;6.40;;;18.50;99.90;;;;;;4406783;32;20151;-81
2021/06/05 06:44:21;;;;;;;9.67;6.47;;;18.60;99.90;;;;;;4408333;32;20220;-80
2021/06/05 06:46:50;;;;;;;10.03;6.60;;;18.60;99.90;;;;;;4406878;32;20193;-81
2021/06/05 06:49:20;;;;;;;8.90;6.67;;;18.80;99.90;;;;;;4409940;32;20151;-81
2021/06/05 06:51:47;;;;;;;7.90;6.70;;;18.90;99.90;;;;;;4410192;32;20201;-81
2021/06/05 06:54:14;;;;;;;8.97;6.83;;;19.10;99.90;;;;;;4410883;32;20209;-81
2021/06/05 06:56:43;;;;;;;9.33;7.23;;;19.30;99.90;;;;;;4410918;32;20284;-82
2021/06/05 06:59:11;;;;;;;10.00;7.30;;;19.40;99.90;;;;;;4411248;32;20186;-82
2021/06/05 07:01:38;;;;;;;8.97;6.07;;;19.60;99.90;;;;;;4398358;32;20439;-82
2021/06/05 07:04:05;;;;;;;9.23;6.03;;;19.80;99.90;;;;;;4409436;32;20537;-82
2021/06/05 07:06:33;;;;;;;6.73;4.60;;;20.00;99.90;;;;;;4412363;32;20218;-82
2021/06/05 07:09:02;;;;;;;7.70;4.70;;;19.90;99.90;;;;;;4442291;32;20147;-82
2021/06/05 07:11:31;;;;;;;6.60;4.63;;;20.00;99.90;;;;;;4441284;32;20154;-82
2021/06/05 07:14:01;;;;;;;6.83;4.70;;;20.10;99.90;;;;;;4442421;32;20154;-82
2021/06/05 07:16:30;;;;;;;7.30;4.47;;;20.10;99.90;;;;;;4442007;32;20205;-82
2021/06/05 07:18:57;;;;;;;5.40;4.90;;;20.30;99.90;;;;;;4441951;32;20142;-82
2021/06/05 07:21:24;;;;;;;9.17;5.90;;;20.40;99.90;;;;;;4442135;32;20184;-82
2021/06/05 07:23:52;;;;;;;8.07;5.87;;;20.60;99.90;;;;;;4442183;32;20134;-81
2021/06/05 07:26:24;;;;;;;8.17;5.57;;;20.60;99.90;;;;;;4441883;32;20142;-82
2021/06/05 07:28:55;;;;;;;6.60;5.20;;;20.50;99.90;;;;;;4441978;32;20161;-82
2021/06/05 07:31:28;;;;;;;7.47;5.40;;;20.50;99.90;;;;;;4442289;32;20374;-83
2021/06/05 07:33:56;;;;;;;6.87;5.30;;;20.50;99.90;;;;;;4441980;32;20141;-82
2021/06/05 07:36:39;;;;;;;7.53;5.20;;;20.60;99.90;;;;;;4441839;32;20410;-82
2021/06/05 07:39:10;;;;;;;7.03;4.83;;;20.50;99.90;;;;;;4443110;32;20195;-82
2021/06/05 07:41:37;;;;;;;7.60;5.03;;;20.30;99.90;;;;;;4443134;32;20146;-82
2021/06/05 07:44:05;;;;;;;6.67;4.93;;;20.20;99.90;;;;;;4441952;32;20201;-82
2021/06/05 07:46:32;;;;;;;6.83;4.17;;;20.30;99.90;;;;;;4442229;32;20134;-82
2021/06/05 07:48:59;;;;;;;5.57;4.40;;;20.30;99.90;;;;;;4441397;32;20465;-81
2021/06/05 07:51:26;;;;;;;6.33;4.87;;;20.30;99.90;;;;;;4441175;32;20169;-82
2021/06/05 07:53:53;;;;;;;6.87;4.87;;;20.20;99.90;;;;;;4441666;32;20142;-82
2021/06/05 07:56:19;;;;;;;7.63;5.30;;;20.00;99.90;;;;;;4440471;32;20153;-81
2021/06/05 07:58:46;;;;;;;7.83;5.23;;;20.00;99.90;;;;;;4440433;32;20472;-81
2021/06/05 08:01:13;;;;;;;7.10;5.53;;;20.00;99.90;;;;;;4441385;32;20130;-81
2021/06/05 08:03:41;;;;;;;7.97;5.13;;;19.90;99.90;;;;;;4441489;32;20161;-82
2021/06/05 08:06:09;;;;;;;9.10;5.70;;;19.90;99.90;;;;;;4441653;32;20142;-82
2021/06/05 08:08:36;;;;;;;8.37;5.97;;;19.90;99.90;;;;;;4442765;32;20130;-81
2021/06/05 08:11:04;;;;;;;7.37;5.30;;;19.80;99.90;;;;;;4440726;32;20142;-82
2021/06/05 08:13:31;;;;;;;8.63;5.73;;;19.80;99.90;;;;;;4440963;32;20152;-82
2021/06/05 08:15:58;;;;;;;7.23;5.57;;;19.80;99.90;;;;;;4442961;32;20146;-82
2021/06/05 08:18:26;;;;;;;7.23;5.60;;;19.90;99.90;;;;;;4442106;32;20512;-83
2021/06/05 08:20:55;;;;;;;6.87;5.77;;;19.90;99.90;;;;;;4441313;32;20151;-82
2021/06/05 08:23:25;;;;;;;8.80;6.50;;;19.80;99.90;;;;;;4441830;32;20452;-82
2021/06/05 08:25:52;;;;;;;7.37;6.13;;;19.80;99.90;;;;;;4442024;32;20190;-82
2021/06/05 08:28:22;;;;;;;7.47;6.37;;;19.50;99.90;;;;;;4441511;32;20163;-82
2021/06/05 08:30:53;;;;;;;8.93;5.90;;;19.60;99.90;;;;;;4440897;32;20138;-82
2021/06/05 08:33:20;;;;;;;8.20;6.20;;;19.70;99.90;;;;;;4441124;32;20142;-82
2021/06/05 08:35:48;;;;;;;9.43;6.60;;;19.60;99.90;;;;;;4442182;32;20390;-83
2021/06/05 08:38:18;;;;;;;7.97;6.30;;;19.70;99.90;;;;;;4442721;32;20162;-82
2021/06/05 08:41:13;;;;;;;10.37;6.73;;;19.60;99.90;;;;;;4442866;32;20207;-82
2021/06/05 08:43:50;;;;;;;7.67;6.27;;;19.60;99.90;;;;;;4440973;32;20179;-82
2021/06/05 08:46:28;;;;;;;8.60;6.80;;;19.60;99.90;;;;;;4442197;32;20134;-81
2021/06/05 08:48:59;;;;;;;8.63;7.00;;;19.70;99.90;;;;;;4442451;32;20187;-81
2021/06/05 08:51:30;;;;;;;8.67;6.80;;;19.70;99.90;;;;;;4440820;32;20146;-81
2021/06/05 08:54:11;;;;;;;9.57;7.07;;;19.70;99.90;;;;;;4441394;32;20146;-81
2021/06/05 08:56:40;;;;;;;9.43;6.90;;;19.70;99.90;;;;;;4442244;32;20134;-82
2021/06/05 08:59:08;;;;;;;8.17;6.87;;;19.70;99.90;;;;;;4440267;32;20151;-81
2021/06/05 09:01:42;;;;;;;9.43;6.87;;;19.60;99.90;;;;;;4440662;32;20520;-82
2021/06/05 09:04:17;;;;;;;8.77;7.00;;;19.80;99.90;;;;;;4440698;32;20212;-82
2021/06/05 09:07:00;;;;;;;10.60;7.40;;;19.90;99.90;;;;;;4440492;32;20160;-81
2021/06/05 09:09:36;;;;;;;9.73;7.20;;;20.00;99.90;;;;;;4441251;32;20208;-83
2021/06/05 09:12:05;;;;;;;7.63;6.50;;;20.10;99.90;;;;;;4440600;32;20138;-82
2021/06/05 09:14:32;;;;;;;9.40;6.50;;;20.30;99.90;;;;;;4440861;32;20451;-82
2021/06/05 09:17:02;;;;;;;10.57;6.90;;;20.30;99.90;;;;;;4440532;32;20142;-83
2021/06/05 09:19:35;;;;;;;8.77;6.80;;;20.40;99.90;;;;;;4440673;32;20154;-82
2021/06/05 09:22:05;;;;;;;10.60;6.80;;;20.60;99.90;;;;;;4440472;32;20268;-83
2021/06/05 09:24:39;;;;;;;8.73;6.93;;;20.60;99.90;;;;;;4440583;32;20208;-82
2021/06/05 09:27:13;;;;;;;9.13;6.97;;;20.80;99.90;;;;;;4440714;32;20495;-82
2021/06/05 09:30:04;;;;;;;9.63;6.50;;;20.80;99.90;;;;;;4441390;32;20456;-82
2021/06/05 09:32:52;;;;;;;9.50;6.60;;;20.90;99.90;;;;;;4440403;32;20143;-82
2021/06/05 09:35:34;;;;;;;9.30;6.50;;;21.10;99.90;;;;;;4442030;32;20187;-82
2021/06/05 09:38:33;;;;;;;12.67;6.97;;;21.30;99.90;;;;;;4440219;32;20412;-82
2021/06/05 09:41:07;;;;;;;10.43;6.30;;;21.40;99.90;;;;;;4440958;32;20428;-82
2021/06/05 09:43:36;;;;;;;8.27;6.30;;;21.50;99.90;;;;;;4440289;32;20238;-82
2021/06/05 09:46:08;;;;;;;9.90;6.83;;;21.30;99.90;;;;;;4441488;32;20194;-83
2021/06/05 09:48:41;;;;;;;10.77;6.87;;;21.40;99.90;;;;;;4440063;32;20529;-83
2021/06/05 09:51:34;;;;;;;7.03;6.30;;;21.50;99.90;;;;;;4439914;32;20139;-82
2021/06/05 09:54:01;;;;;;;9.80;6.90;;;21.70;99.90;;;;;;4440335;32;20143;-81
2021/06/05 09:56:35;;;;;;;10.27;7.40;;;21.80;99.90;;;;;;4439745;32;20138;-81
2021/06/05 09:59:26;;;;;;;13.17;7.70;;;21.90;99.90;;;;;;4439803;32;20150;-80
2021/06/05 10:02:08;;;;;;;9.50;7.03;;;22.10;99.90;;;;;;4439988;32;20147;-81
2021/06/05 10:04:37;;;;;;;10.03;7.00;;;22.20;99.90;;;;;;4441628;32;20150;-80
2021/06/05 10:07:24;;;;;;;9.30;7.27;;;22.30;99.90;;;;;;4439896;32;20444;-81
2021/06/05 10:09:59;;;;;;;8.97;6.70;;;22.40;99.90;;;;;;4439757;32;20480;-81
2021/06/05 10:12:28;;;;;;;8.43;6.50;;;22.40;99.90;;;;;;4440843;32;20134;-81
2021/06/05 10:15:07;;;;;;;7.87;6.57;;;22.70;99.90;;;;;;4441266;32;20476;-81
2021/06/05 10:17:56;;;;;;;9.00;6.40;;;23.10;99.90;;;;;;4439520;32;20213;-81
2021/06/05 10:20:41;;;;;;;8.00;6.12;;;23.40;99.80;;;;;;4439470;32;20157;-81
2021/06/05 10:23:08;;;;;;;9.20;6.90;;;24.00;99.90;;;;;;4440914;32;20234;-80
2021/06/05 10:25:40;;;;;;;8.32;6.50;;;24.20;97.10;;;;;;4439724;32;20197;-81
2021/06/05 10:28:17;;;;;;;9.18;6.95;;;24.80;95.70;;;;;;4439552;32;20146;-82
2021/06/05 10:31:09;;;;;;;8.43;6.70;;;25.60;93.90;;;;;;4441397;32;20468;-81
2021/06/05 10:34:11;;;;;;;6.62;5.50;;;25.80;91.70;;;;;;4439136;32;20207;-81
2021/06/05 10:36:47;;;;;;;6.53;5.20;;;26.40;86.60;;;;;;4365237;32;20190;-82
2021/06/05 10:39:24;;;;;;;6.47;5.18;;;27.00;80.70;;;;;;4377390;32;20205;-82
2021/06/05 10:41:59;;;;;;;8.40;5.18;;;27.30;74.90;;;;;;4377180;32;20155;-82
2021/06/05 10:44:26;;;;;;;5.40;4.75;;;27.90;73.70;;;;;;4377247;32;20198;-83
2021/06/05 10:47:01;;;;;;;5.10;4.60;;;28.50;68.50;;;;;;4376291;32;20530;-81
2021/06/05 10:49:53;;;;;;;5.97;4.85;;;29.10;65.70;;;;;;4366393;32;20152;-82
2021/06/05 10:52:30;;;;;;;5.95;4.87;;;29.30;62.40;;;;;;4376511;32;20496;-81
2021/06/05 10:55:20;;;;;;;7.05;4.37;;;29.30;62.90;;;;;;4376616;32;20159;-82
2021/06/05 10:58:08;;;;;;;5.85;5.00;;;29.10;59.20;;;;;;4376184;32;20240;-81
2021/06/05 11:00:41;;;;;;;6.30;4.65;;;29.50;58.20;;;;;;4378261;32;20220;-82
2021/06/05 11:03:30;;;;;;;6.30;4.50;;;29.60;58.10;;;;;;4376334;32;20139;-81
2021/06/05 11:06:10;;;;;;;7.90;4.32;;;30.00;56.20;;;;;;4377001;32;20414;-81
2021/06/05 11:08:55;;;;;;;4.55;4.12;;;30.40;54.90;;;;;;4376345;32;20158;-81
2021/06/05 11:11:22;;;;;;;4.95;4.00;;;30.40;54.30;;;;;;4384931;32;20171;-82
2021/06/05 11:13:48;;;;;;;6.53;4.12;;;30.60;54.00;;;;;;4438857;32;20139;-82
2021/06/05 11:16:19;;;;;;;4.22;3.80;;;31.00;52.50;;;;;;4439752;32;20143;-82
2021/06/05 11:18:58;;;;;;;5.12;3.53;;;31.00;50.60;;;;;;4439177;32;20195;-81
2021/06/05 11:21:26;;;;;;;4.15;3.20;;;31.20;48.40;;;;;;4439827;32;20196;-81
2021/06/05 11:23:56;;;;;;;5.68;3.60;;;31.10;48.90;;;;;;4439626;32;20174;-83
2021/06/05 11:26:40;;;;;;;4.47;3.78;;;31.50;49.90;;;;;;4439329;32;20196;-82
2021/06/05 11:29:19;;;;;;;4.72;3.83;;;32.00;50.50;;;;;;4439275;32;20545;-82
2021/06/05 11:32:06;;;;;;;4.65;3.45;;;32.20;48.10;;;;;;4439237;32;20191;-81
2021/06/05 11:34:36;;;;;;;4.35;3.33;;;31.90;47.10;;;;;;4441918;32;20173;-81
2021/06/05 11:37:15;;;;;;;3.50;3.17;;;32.20;46.50;;;;;;4442438;32;20175;-82
2021/06/05 11:39:45;;;;;;;4.57;3.30;;;32.30;46.80;;;;;;4443294;32;20405;-81
2021/06/05 11:42:23;;;;;;;2.75;2.40;;;32.80;47.40;;;;;;4442082;32;20134;-82
2021/06/05 11:44:56;;;;;;;2.60;2.40;;;32.90;41.50;;;;;;4441155;32;20522;-83
2021/06/05 11:47:23;;;;;;;4.70;2.58;;;33.00;40.90;;;;;;4442794;32;20446;-82
2021/06/05 11:49:55;;;;;;;3.08;2.55;;;33.10;42.60;;;;;;4441953;32;20131;-82
2021/06/05 11:52:32;;;;;;;3.35;3.00;;;32.80;42.50;;;;;;4441974;32;20445;-82
2021/06/05 11:55:04;;;;;;;4.47;2.60;;;32.70;42.60;;;;;;4441846;32;20156;-82
2021/06/05 11:57:40;;;;;;;3.42;2.80;;;32.40;42.10;;;;;;4443044;32;20167;-82
2021/06/05 12:00:09;;;;;;;2.90;2.70;;;31.60;44.60;;;;;;4443155;32;20195;-84
2021/06/05 12:02:39;;;;;;;3.17;2.60;;;32.00;44.40;;;;;;4442076;32;20150;-81
2021/06/05 12:05:24;;;;;;;3.67;2.50;;;32.40;43.30;;;;;;4441139;32;20465;-82
2021/06/05 12:07:51;;;;;;;2.95;2.65;;;32.50;42.80;;;;;;4441475;32;20189;-80
2021/06/05 12:10:39;;;;;;;3.20;2.65;;;33.00;42.00;;;;;;4441719;32;20158;-82
2021/06/05 12:13:23;;;;;;;3.58;2.33;;;33.00;41.10;;;;;;4441794;32;20174;-82
2021/06/05 12:15:51;;;;;;;3.58;2.37;;;32.80;40.80;;;;;;4441589;32;20164;-82
2021/06/05 12:18:23;;;;;;;2.40;2.20;;;33.10;41.70;;;;;;4441291;32;20389;-83
2021/06/05 12:21:05;;;;;;;2.72;2.53;;;33.20;40.50;;;;;;4442983;32;20146;-82
2021/06/05 12:23:34;;;;;;;2.70;2.50;;;33.80;40.10;;;;;;4442518;32;20161;-82
2021/06/05 12:26:15;;;;;;;3.45;2.40;;;33.60;40.20;;;;;;4441138;32;20496;-82
2021/06/05 12:28:45;;;;;;;4.15;2.60;;;33.90;40.80;;;;;;4441622;32;20226;-81
2021/06/05 12:31:34;;;;;;;2.72;2.53;;;34.10;40.60;;;;;;4441972;32;20135;-82
2021/06/05 12:34:10;;;;;;;3.00;2.70;;;34.30;38.10;;;;;;4442532;32;20147;-82
2021/06/05 12:36:40;;;;;;;3.28;2.72;;;34.50;38.30;;;;;;4441715;32;20137;-82
2021/06/05 12:39:15;;;;;;;2.87;2.60;;;34.70;38.60;;;;;;4441242;32;20142;-82
2021/06/05 12:41:46;;;;;;;4.18;2.85;;;34.60;38.40;;;;;;4440954;32;20142;-82
2021/06/05 12:44:34;;;;;;;2.92;2.70;;;34.30;38.50;;;;;;4441424;32;20138;-84
2021/06/05 12:47:08;;;;;;;3.20;2.70;;;34.00;39.10;;;;;;4442534;32;20165;-83
2021/06/05 12:49:37;;;;;;;3.30;3.00;;;34.70;40.00;;;;;;4441070;32;20226;-83
2021/06/05 12:52:11;;;;;;;4.53;3.35;;;34.60;39.70;;;;;;4441022;32;20204;-82
2021/06/05 12:54:47;;;;;;;4.55;3.55;;;34.30;40.70;;;;;;4440495;32;20389;-82
2021/06/05 12:57:44;;;;;;;4.10;3.62;;;33.80;41.80;;;;;;4442192;32;20142;-81
2021/06/05 13:00:14;;;;;;;6.97;3.92;;;32.90;43.30;;;;;;4442286;32;20155;-81
2021/06/05 13:02:41;;;;;;;4.95;4.10;;;31.60;45.60;;;;;;4442187;32;20198;-81
2021/06/05 13:05:27;;;;;;;4.45;3.95;;;30.60;46.70;;;;;;4440594;32;20134;-81
2021/06/05 13:08:09;;;;;;;5.50;4.07;;;29.70;48.90;;;;;;4441966;32;20193;-81
2021/06/05 13:10:45;;;;;;;4.40;3.80;;;29.00;50.80;;;;;;4442247;32;20158;-81